METAR Data
IDs: Format: Raw Decoded Include TAF

Data at: 2317 UTC 30 Jun 2022

PTYA 302253Z 00000KT 12SM FEW016 SCT300 28/26 A2982 RMK SLP100 T02790263